Allendale, Illinois
Current Conditions -  °F | °C
As of 8:35 AM on Monday 22 Dec 2014 (Local Time) from KAJG Reporting Station
Overcast Overcast  
Wind Chill:   Ceiling: 900
Heat Index:   Visibility: 10mi
Dew Point:   Wind: 9mph
Humidity: 87%   Direction: 100°E
Pressure: 29.89"   Gusts: NA
Location:  38.53°N, 87.71°W
Report Text: KAJG 221435Z AUTO 10008KT 10SM OVC009 04/02 A2989 RMK AO2
Loading
Personal Weather Stations






























Interactive Weather Map New forecast layout! Learn more

10-Day Weather Forecast

Advertisements
Track Severe Weather on mobile